Time;durP1;ratioP1;P1;durP2;ratioP2;P2;SDS_P1;SDS_P2;PMS_P1;PMS_P2;Temp;Humidity;BMP_temperature;BMP_pressure;BME280_temperature;BME280_humidity;BME280_pressure;Samples;Min_cycle;Max_cycle;Signal;HPM_P1;HPM_P2
2021/10/28 00:14:35;;;;;;;19.47;15.97;;;9.80;93.80;;;;;;5120857;28;20135;-82
2021/10/28 00:17:08;;;;;;;20.47;14.80;;;9.70;93.80;;;;;;5103711;28;20051;-82
2021/10/28 00:19:34;;;;;;;21.63;14.70;;;9.70;93.80;;;;;;5097337;28;20051;-82
2021/10/28 00:22:01;;;;;;;18.47;13.77;;;9.70;93.90;;;;;;5081107;28;20036;-83
2021/10/28 00:24:27;;;;;;;20.53;14.40;;;9.70;93.90;;;;;;5120034;28;20459;-78
2021/10/28 00:26:53;;;;;;;18.47;13.37;;;9.60;93.90;;;;;;5119236;28;20111;-83
2021/10/28 00:29:21;;;;;;;17.93;13.10;;;9.60;93.90;;;;;;5091282;28;20051;-83
2021/10/28 00:31:47;;;;;;;19.83;13.57;;;9.60;93.90;;;;;;5098789;28;20038;-81
2021/10/28 00:34:15;;;;;;;20.53;12.60;;;9.60;93.90;;;;;;5117048;28;20518;-83
2021/10/28 00:36:44;;;;;;;20.53;13.50;;;9.60;94.00;;;;;;5119848;28;20437;-82
2021/10/28 00:39:09;;;;;;;19.97;13.20;;;9.50;94.00;;;;;;5119958;28;20032;-84
2021/10/28 00:41:38;;;;;;;19.47;14.07;;;9.50;94.00;;;;;;5080300;28;20034;-81
2021/10/28 00:44:05;;;;;;;18.43;12.43;;;9.50;94.10;;;;;;5085166;28;20092;-82
2021/10/28 00:46:33;;;;;;;17.57;11.67;;;9.50;94.00;;;;;;5102316;28;20087;-81
2021/10/28 00:49:00;;;;;;;15.60;12.13;;;9.40;94.00;;;;;;5115998;28;20050;-82
2021/10/28 00:51:28;;;;;;;15.83;12.13;;;9.40;94.10;;;;;;5078609;28;20032;-83
2021/10/28 00:53:55;;;;;;;16.90;12.40;;;9.40;94.20;;;;;;5112072;28;20076;-81
2021/10/28 00:56:23;;;;;;;17.80;12.70;;;9.30;94.10;;;;;;5098979;28;20087;-82
2021/10/28 00:58:50;;;;;;;14.90;12.07;;;9.30;94.20;;;;;;5095973;28;20046;-83
2021/10/28 01:01:16;;;;;;;15.27;11.57;;;9.40;94.30;;;;;;5117176;28;20039;-81
2021/10/28 01:03:43;;;;;;;17.60;11.43;;;9.30;94.20;;;;;;5089270;28;20027;-82
2021/10/28 01:06:10;;;;;;;15.67;11.83;;;9.30;94.20;;;;;;5078611;28;20038;-82
2021/10/28 01:08:38;;;;;;;18.30;11.67;;;9.20;94.20;;;;;;5085962;28;20043;-80
2021/10/28 01:11:06;;;;;;;17.30;13.40;;;9.20;94.20;;;;;;5103591;28;20019;-83
2021/10/28 01:13:32;;;;;;;17.47;12.27;;;9.20;94.30;;;;;;5101471;28;20031;-83
2021/10/28 01:15:58;;;;;;;17.10;12.03;;;9.20;94.30;;;;;;5129965;28;20114;-82
2021/10/28 01:18:24;;;;;;;17.10;12.37;;;9.20;94.30;;;;;;5109812;28;20043;-82
2021/10/28 01:20:53;;;;;;;16.77;11.70;;;9.20;94.40;;;;;;5084032;28;20164;-82
2021/10/28 01:23:21;;;;;;;16.83;12.23;;;9.20;94.40;;;;;;5117696;28;20114;-82
2021/10/28 01:25:55;;;;;;;18.00;11.87;;;9.10;94.30;;;;;;5115741;28;20052;-82
2021/10/28 01:28:24;;;;;;;19.30;11.60;;;9.10;94.40;;;;;;5114658;28;20540;-83
2021/10/28 01:30:53;;;;;;;18.27;12.00;;;9.00;94.40;;;;;;5114544;28;20031;-79
2021/10/28 01:33:20;;;;;;;14.50;11.67;;;9.00;94.40;;;;;;5115829;28;20027;-83
2021/10/28 01:35:47;;;;;;;16.40;11.87;;;9.00;94.50;;;;;;5097621;28;20471;-84
2021/10/28 01:38:14;;;;;;;16.20;10.53;;;9.10;94.50;;;;;;5115682;28;20024;-83
2021/10/28 01:40:41;;;;;;;15.03;11.13;;;9.10;94.50;;;;;;5097607;28;20027;-80
2021/10/28 01:43:07;;;;;;;17.47;12.03;;;9.00;94.50;;;;;;5095014;28;20020;-83
2021/10/28 01:45:33;;;;;;;17.70;11.47;;;9.00;94.60;;;;;;5077198;28;20056;-83
2021/10/28 01:48:01;;;;;;;16.60;11.13;;;9.00;94.60;;;;;;5097542;28;20103;-83
2021/10/28 01:50:30;;;;;;;17.13;12.80;;;9.00;94.80;;;;;;5111348;28;20035;-82
2021/10/28 01:52:57;;;;;;;21.23;11.93;;;8.90;94.50;;;;;;5068519;28;20032;-83
2021/10/28 01:55:23;;;;;;;16.33;11.57;;;8.90;94.60;;;;;;5097022;28;20028;-84
2021/10/28 01:57:49;;;;;;;17.80;10.80;;;8.90;94.60;;;;;;5089181;28;20031;-83
2021/10/28 02:00:17;;;;;;;18.00;11.60;;;8.90;94.70;;;;;;5116919;28;20023;-83
2021/10/28 02:02:45;;;;;;;15.30;10.77;;;8.90;94.70;;;;;;5101644;28;20024;-81
2021/10/28 02:05:15;;;;;;;17.87;10.90;;;9.00;94.80;;;;;;5117359;28;20031;-82
2021/10/28 02:07:42;;;;;;;17.33;11.07;;;9.00;94.80;;;;;;5094985;28;20510;-81
2021/10/28 02:10:09;;;;;;;13.53;10.77;;;9.00;94.90;;;;;;5111929;28;20027;-82
2021/10/28 02:12:36;;;;;;;15.87;10.23;;;9.00;94.90;;;;;;5101595;28;20024;-83
2021/10/28 02:15:03;;;;;;;13.87;10.47;;;9.00;94.70;;;;;;5078569;28;20054;-81
2021/10/28 02:17:29;;;;;;;17.40;11.40;;;8.90;94.70;;;;;;5114689;28;20034;-83
2021/10/28 02:19:54;;;;;;;16.77;12.53;;;8.70;94.70;;;;;;5112380;28;20336;-83
2021/10/28 02:22:20;;;;;;;18.83;13.60;;;8.70;94.80;;;;;;5113153;28;20038;-83
2021/10/28 02:24:46;;;;;;;19.33;14.93;;;8.60;94.80;;;;;;5095964;28;20111;-80
2021/10/28 02:27:13;;;;;;;18.67;13.73;;;8.60;94.90;;;;;;5112875;28;20542;-83
2021/10/28 02:29:39;;;;;;;19.30;14.77;;;8.60;94.90;;;;;;5095799;28;20058;-83
2021/10/28 02:32:05;;;;;;;22.47;15.03;;;8.60;95.10;;;;;;5109784;28;20023;-81
2021/10/28 02:34:31;;;;;;;20.57;14.13;;;8.60;95.00;;;;;;5096704;28;20027;-83
2021/10/28 02:36:56;;;;;;;19.53;14.57;;;8.70;95.00;;;;;;5116460;28;20063;-82
2021/10/28 02:39:22;;;;;;;20.43;14.07;;;8.70;94.90;;;;;;5078973;28;20032;-83
2021/10/28 02:41:48;;;;;;;20.33;14.67;;;8.70;94.90;;;;;;5074495;28;20031;-80
2021/10/28 02:44:14;;;;;;;19.53;13.77;;;8.70;95.00;;;;;;5115110;28;20032;-82
2021/10/28 02:46:40;;;;;;;20.87;14.03;;;8.70;95.00;;;;;;5065912;28;20046;-83
2021/10/28 02:49:11;;;;;;;19.53;13.03;;;8.70;95.10;;;;;;5080542;28;20059;-81
2021/10/28 02:51:38;;;;;;;18.87;13.10;;;8.70;95.00;;;;;;5114609;28;20031;-83
2021/10/28 02:54:04;;;;;;;18.83;13.53;;;8.70;95.00;;;;;;5095483;28;20468;-82
2021/10/28 02:56:30;;;;;;;17.83;14.23;;;8.70;95.00;;;;;;5062065;28;20028;-83
2021/10/28 02:58:56;;;;;;;18.87;13.60;;;8.60;95.00;;;;;;5086282;28;20393;-83
2021/10/28 03:01:21;;;;;;;16.83;13.83;;;8.60;95.10;;;;;;5086637;28;20055;-82
2021/10/28 03:03:47;;;;;;;17.17;13.40;;;8.50;95.10;;;;;;5067242;28;20032;-82
2021/10/28 03:06:13;;;;;;;16.20;12.67;;;8.60;95.30;;;;;;5081882;28;20036;-82
2021/10/28 03:08:41;;;;;;;17.57;12.70;;;8.60;95.20;;;;;;5113154;28;20103;-83
2021/10/28 03:11:08;;;;;;;15.27;12.27;;;8.60;95.20;;;;;;5082966;28;20020;-83
2021/10/28 03:13:35;;;;;;;17.00;12.77;;;8.60;95.10;;;;;;5113957;28;20031;-82
2021/10/28 03:16:13;;;;;;;20.47;13.03;;;8.50;95.10;;;;;;5119904;28;20034;-83
2021/10/28 03:26:53;;;;;;;20.37;13.67;;;8.40;95.00;;;;;;5119824;28;20058;-79
2021/10/28 03:29:19;;;;;;;18.83;12.70;;;8.40;95.00;;;;;;5101664;28;20040;-83
2021/10/28 03:31:45;;;;;;;20.43;14.40;;;8.30;95.00;;;;;;5081790;28;20062;-82
2021/10/28 03:34:11;;;;;;;20.87;13.97;;;8.30;95.00;;;;;;5089666;28;20028;-83
2021/10/28 03:36:47;;;;;;;27.20;15.27;;;8.30;95.10;;;;;;5099216;28;20036;-83
2021/10/28 03:55:19;;;;;;;21.27;14.73;;;8.30;95.30;;;;;;5120999;28;20061;-82
2021/10/28 04:29:42;;;;;;;24.43;15.27;;;8.00;95.40;;;;;;5123283;28;20065;-84
2021/10/28 04:32:08;;;;;;;22.90;15.30;;;8.00;95.40;;;;;;5086345;28;20032;-80
2021/10/28 04:34:34;;;;;;;24.63;15.93;;;7.90;95.40;;;;;;5084243;28;20103;-83
2021/10/28 04:37:00;;;;;;;27.23;16.50;;;7.80;95.50;;;;;;5079844;28;20036;-83
2021/10/28 04:39:26;;;;;;;23.50;15.23;;;7.80;95.60;;;;;;5091032;28;20035;-81
2021/10/28 04:41:51;;;;;;;22.93;14.83;;;7.80;95.60;;;;;;5079234;28;20036;-80
2021/10/28 04:44:17;;;;;;;22.30;15.10;;;7.80;95.60;;;;;;5109408;28;20096;-80
2021/10/28 04:46:43;;;;;;;23.63;15.83;;;7.80;95.60;;;;;;5093934;28;20047;-82
2021/10/28 04:49:08;;;;;;;21.83;15.07;;;7.80;95.70;;;;;;5107979;28;20076;-82
2021/10/28 04:51:34;;;;;;;23.83;15.83;;;7.90;95.80;;;;;;5065321;28;20039;-82
2021/10/28 04:54:00;;;;;;;24.63;15.47;;;7.90;95.70;;;;;;5072606;28;20035;-82
2021/10/28 04:56:26;;;;;;;25.67;15.23;;;8.00;95.80;;;;;;5090572;28;20043;-82
2021/10/28 04:58:52;;;;;;;24.47;14.87;;;8.00;95.80;;;;;;5067844;28;20032;-83
2021/10/28 05:01:19;;;;;;;21.47;15.20;;;8.00;95.70;;;;;;5080376;28;20035;-83
2021/10/28 05:03:45;;;;;;;21.97;14.83;;;8.10;95.70;;;;;;5094303;28;20560;-80
2021/10/28 05:06:12;;;;;;;23.63;15.77;;;8.00;95.60;;;;;;5111184;28;20118;-81
2021/10/28 05:08:38;;;;;;;21.27;14.83;;;8.00;95.60;;;;;;5109962;28;20024;-81
2021/10/28 05:11:03;;;;;;;23.90;14.63;;;8.00;95.60;;;;;;5110670;28;20038;-81
2021/10/28 05:13:29;;;;;;;21.57;13.70;;;8.00;95.70;;;;;;5072600;28;20032;-81
2021/10/28 05:15:55;;;;;;;26.00;15.13;;;8.10;95.70;;;;;;5073856;28;20036;-81
2021/10/28 05:18:24;;;;;;;20.23;13.83;;;8.10;95.60;;;;;;5072719;28;20123;-81
2021/10/28 05:20:50;;;;;;;22.13;13.83;;;8.10;95.70;;;;;;5098222;28;20058;-81
2021/10/28 05:23:16;;;;;;;24.77;13.43;;;8.10;95.60;;;;;;5090427;28;20031;-81
2021/10/28 05:25:42;;;;;;;18.80;12.87;;;8.10;95.70;;;;;;5087349;28;20047;-82
2021/10/28 05:28:08;;;;;;;19.90;13.03;;;8.20;95.80;;;;;;5092127;28;20463;-83
2021/10/28 05:30:34;;;;;;;22.53;14.30;;;8.20;95.60;;;;;;5100341;28;20131;-84
2021/10/28 05:33:00;;;;;;;19.40;12.27;;;8.10;95.50;;;;;;5092701;28;20043;-84
2021/10/28 05:35:27;;;;;;;20.83;13.30;;;8.10;95.50;;;;;;5112769;28;20078;-84
2021/10/28 05:37:53;;;;;;;22.40;13.67;;;8.00;95.60;;;;;;5093149;28;20456;-82
2021/10/28 05:40:19;;;;;;;25.87;14.47;;;8.00;95.60;;;;;;5110802;28;20483;-82
2021/10/28 05:42:49;;;;;;;20.93;14.03;;;8.00;95.60;;;;;;5094723;28;20027;-83
2021/10/28 05:45:16;;;;;;;20.63;14.07;;;8.10;95.80;;;;;;5086641;28;20039;-80
2021/10/28 05:47:42;;;;;;;19.53;14.23;;;8.20;95.80;;;;;;5095357;28;20031;-83
2021/10/28 05:50:12;;;;;;;20.97;13.10;;;8.30;95.60;;;;;;5075731;28;20384;-84
2021/10/28 05:52:38;;;;;;;22.13;14.10;;;8.30;95.30;;;;;;5110452;28;20079;-84
2021/10/28 05:55:05;;;;;;;23.43;14.43;;;8.10;95.10;;;;;;5079466;28;20024;-83
2021/10/28 05:57:31;;;;;;;22.23;14.40;;;8.00;95.20;;;;;;5108088;28;20031;-84
2021/10/28 05:59:57;;;;;;;30.57;16.43;;;8.00;95.30;;;;;;5086638;28;20471;-82
2021/10/28 06:02:23;;;;;;;25.00;15.47;;;7.90;95.40;;;;;;5059484;28;20025;-82
2021/10/28 06:04:49;;;;;;;28.20;17.73;;;8.00;95.60;;;;;;5076304;28;20427;-82
2021/10/28 06:07:14;;;;;;;24.53;16.30;;;8.00;95.70;;;;;;5102847;28;20032;-79
2021/10/28 06:09:40;;;;;;;25.37;15.57;;;8.10;95.70;;;;;;5093856;28;20035;-83
2021/10/28 06:12:07;;;;;;;25.33;15.77;;;8.10;95.60;;;;;;5096011;28;20395;-81
2021/10/28 06:14:33;;;;;;;21.40;15.37;;;8.10;95.50;;;;;;5082790;28;20028;-82
2021/10/28 06:17:09;;;;;;;22.50;15.30;;;8.00;95.50;;;;;;5105188;28;20077;-83
2021/10/28 06:19:35;;;;;;;27.23;16.90;;;8.00;95.50;;;;;;5057351;28;20040;-82
2021/10/28 06:22:02;;;;;;;23.80;15.17;;;8.00;95.70;;;;;;5090857;28;20126;-83
2021/10/28 06:24:28;;;;;;;25.20;17.30;;;8.00;95.70;;;;;;5088582;28;20375;-83
2021/10/28 06:26:54;;;;;;;26.37;18.07;;;7.90;95.70;;;;;;5075004;28;20074;-82
2021/10/28 06:29:20;;;;;;;32.37;22.00;;;7.90;95.80;;;;;;5092451;28;20455;-80
2021/10/28 06:31:48;;;;;;;31.80;20.30;;;8.10;96.10;;;;;;5065648;28;20035;-83
2021/10/28 06:34:25;;;;;;;28.90;18.93;;;8.30;96.20;;;;;;5066839;28;20050;-82
2021/10/28 06:36:51;;;;;;;27.73;18.97;;;8.50;96.10;;;;;;5090738;28;20495;-82
2021/10/28 06:39:17;;;;;;;27.60;20.37;;;8.50;96.00;;;;;;5079198;28;20056;-83
2021/10/28 06:41:43;;;;;;;31.93;20.87;;;8.70;96.30;;;;;;5084100;28;20050;-82
2021/10/28 06:44:09;;;;;;;28.50;18.83;;;8.90;96.80;;;;;;5094984;28;20031;-82
2021/10/28 06:46:35;;;;;;;30.00;19.83;;;9.40;96.70;;;;;;5051809;28;20027;-82
2021/10/28 06:49:04;;;;;;;23.67;17.40;;;9.80;95.90;;;;;;5082228;28;20366;-82
2021/10/28 06:51:31;;;;;;;24.40;17.03;;;10.20;94.70;;;;;;5081169;28;20027;-82
2021/10/28 07:04:35;;;;;;;17.27;10.77;;;11.90;88.90;;;;;;5108842;28;20042;-82
2021/10/28 07:07:00;;;;;;;14.27;10.73;;;12.30;86.30;;;;;;5052982;28;20399;-82
2021/10/28 07:12:08;;;;;;;17.40;11.73;;;12.80;83.10;;;;;;5101493;28;20036;-80
2021/10/28 07:14:34;;;;;;;16.33;10.30;;;13.10;82.80;;;;;;5107201;28;20032;-82
2021/10/28 07:17:13;;;;;;;14.80;10.60;;;13.50;80.80;;;;;;5073621;28;20040;-82
2021/10/28 07:28:02;;;;;;;15.20;10.95;;;14.30;76.30;;;;;;5089039;28;20091;-82
2021/10/28 07:30:58;;;;;;;13.90;10.10;;;14.40;76.10;;;;;;5087996;28;20043;-80
2021/10/28 07:39:28;;;;;;;12.90;9.80;;;15.20;73.60;;;;;;5108515;28;20157;-82
2021/10/28 08:16:55;;;;;;;11.48;6.93;;;17.10;66.50;;;;;;5113571;28;20040;-83
2021/10/28 08:21:56;;;;;;;10.02;7.40;;;17.30;65.70;;;;;;5110446;28;20513;-83
2021/10/28 08:29:46;;;;;;;10.35;6.78;;;17.80;64.90;;;;;;5111865;28;20055;-83
2021/10/28 08:32:12;;;;;;;10.25;7.03;;;17.90;63.80;;;;;;5094421;28;20072;-84
2021/10/28 08:34:39;;;;;;;8.65;6.47;;;17.70;64.10;;;;;;5095125;28;20426;-82
2021/10/28 08:39:34;;;;;;;8.32;6.50;;;17.60;64.50;;;;;;5093112;28;20468;-85
2021/10/28 08:42:05;;;;;;;9.02;5.95;;;17.40;64.80;;;;;;5092553;28;20348;-86
2021/10/28 08:44:33;;;;;;;8.32;6.50;;;17.40;65.30;;;;;;5109251;28;20034;-84
2021/10/28 08:47:03;;;;;;;9.30;6.57;;;17.60;64.90;;;;;;5074578;28;20032;-85
2021/10/28 08:49:34;;;;;;;8.07;5.72;;;17.70;65.00;;;;;;5080121;28;20023;-85
2021/10/28 08:54:50;;;;;;;10.45;6.00;;;17.90;63.80;;;;;;5115537;28;20035;-86
2021/10/28 09:00:09;;;;;;;8.85;6.47;;;18.00;64.20;;;;;;5083827;28;20039;-81
2021/10/28 09:24:41;;;;;;;8.52;5.68;;;18.90;62.40;;;;;;5117053;28;20107;-85
2021/10/28 09:29:57;;;;;;;6.40;5.55;;;19.10;62.10;;;;;;5117880;28;20054;-86
2021/10/28 09:32:34;;;;;;;6.30;4.75;;;19.40;61.50;;;;;;5089516;28;20036;-87
2021/10/28 09:51:42;;;;;;;6.38;4.40;;;19.70;60.60;;;;;;5068036;28;20494;-85
2021/10/28 09:54:28;;;;;;;6.50;4.90;;;20.20;60.50;;;;;;5117370;28;20032;-87
2021/10/28 09:59:50;;;;;;;5.30;4.78;;;20.30;58.70;;;;;;5117103;28;20045;-84
2021/10/28 10:02:38;;;;;;;4.97;4.45;;;20.30;57.40;;;;;;5098110;28;20091;-86
2021/10/28 10:05:27;;;;;;;5.03;3.95;;;20.20;58.50;;;;;;5093564;28;20069;-87
2021/10/28 10:07:55;;;;;;;5.13;4.40;;;20.20;58.20;;;;;;5093371;28;20027;-81
2021/10/28 10:10:21;;;;;;;4.45;3.70;;;20.30;58.80;;;;;;5078718;28;20028;-86
2021/10/28 10:12:48;;;;;;;5.13;4.38;;;20.40;58.20;;;;;;5082762;28;20043;-86
2021/10/28 10:15:14;;;;;;;5.15;4.20;;;20.60;57.70;;;;;;5091661;28;20043;-85
2021/10/28 10:17:59;;;;;;;5.10;3.63;;;20.20;56.90;;;;;;5092502;28;20032;-86
2021/10/28 10:20:44;;;;;;;5.97;4.38;;;20.30;58.50;;;;;;5090988;28;20012;-83
2021/10/28 11:22:22;;;;;;;4.60;4.03;;;21.50;53.00;;;;;;5113309;28;20043;-86
2021/10/28 13:52:47;;;;;;;4.75;1.75;;;18.20;62.10;;;;;;5096093;28;20678;-84
2021/10/28 15:28:58;;;;;;;6.55;1.30;;;17.00;65.20;;;;;;5101565;28;20058;-82
2021/10/28 15:36:59;;;;;;;4.88;3.90;;;16.80;65.70;;;;;;5115827;28;20051;-81
2021/10/28 16:21:55;;;;;;;6.45;4.10;;;15.30;69.90;;;;;;5095808;28;20402;-81
2021/10/28 16:24:26;;;;;;;5.78;3.40;;;15.30;70.20;;;;;;5094961;28;20024;-82
2021/10/28 16:26:53;;;;;;;3.92;3.30;;;15.20;70.20;;;;;;5108824;28;20036;-82
2021/10/28 16:29:19;;;;;;;4.47;3.40;;;15.10;70.30;;;;;;5093181;28;20042;-82
2021/10/28 16:31:45;;;;;;;6.25;3.67;;;15.10;70.60;;;;;;5094735;28;20022;-81
2021/10/28 16:34:12;;;;;;;5.43;4.30;;;15.10;70.80;;;;;;5112715;28;20024;-81
2021/10/28 16:36:38;;;;;;;4.72;3.33;;;15.00;70.90;;;;;;5092287;28;20112;-82
2021/10/28 16:39:11;;;;;;;6.93;5.55;;;14.90;71.00;;;;;;5109302;28;20027;-82
2021/10/28 16:41:39;;;;;;;6.57;5.25;;;14.90;71.40;;;;;;5112137;28;20448;-82
2021/10/28 16:44:06;;;;;;;7.40;3.25;;;14.80;71.60;;;;;;5092606;28;20530;-81
2021/10/28 16:46:33;;;;;;;5.85;4.03;;;14.80;71.70;;;;;;5080205;28;20051;-81
2021/10/28 16:48:59;;;;;;;9.27;5.55;;;14.70;72.00;;;;;;5087859;28;20077;-82
2021/10/28 16:51:25;;;;;;;10.23;5.28;;;14.70;72.30;;;;;;5057085;28;20032;-82
2021/10/28 16:53:51;;;;;;;10.48;5.20;;;14.60;72.50;;;;;;5091943;28;20024;-80
2021/10/28 16:56:17;;;;;;;13.07;5.32;;;14.60;72.70;;;;;;5072018;28;20515;-82
2021/10/28 16:58:44;;;;;;;7.25;4.38;;;14.50;72.80;;;;;;5104785;28;20032;-82
2021/10/28 17:01:10;;;;;;;10.27;5.47;;;14.40;72.90;;;;;;5083609;28;20471;-82
2021/10/28 17:03:36;;;;;;;8.48;3.75;;;14.40;73.30;;;;;;5088969;28;20084;-82
2021/10/28 17:06:02;;;;;;;4.95;3.60;;;14.30;73.40;;;;;;5093146;28;20055;-82
2021/10/28 17:08:29;;;;;;;4.60;3.63;;;14.30;73.50;;;;;;5088351;28;20040;-81
2021/10/28 17:10:55;;;;;;;6.22;3.20;;;14.20;73.60;;;;;;5099293;28;20034;-80
2021/10/28 17:13:21;;;;;;;6.95;3.40;;;14.20;73.80;;;;;;5108052;28;20036;-82
2021/10/28 17:15:47;;;;;;;9.23;4.80;;;14.20;73.90;;;;;;5095511;28;20081;-82
2021/10/28 17:18:13;;;;;;;5.28;3.47;;;14.10;74.20;;;;;;5107953;28;20764;-82
2021/10/28 17:20:39;;;;;;;6.47;3.65;;;14.10;74.10;;;;;;5109769;28;20031;-83
2021/10/28 17:23:06;;;;;;;6.72;5.00;;;14.10;74.10;;;;;;5067824;28;20039;-81
2021/10/28 17:25:38;;;;;;;5.38;4.50;;;14.00;74.50;;;;;;5090230;28;20085;-81
2021/10/28 17:28:04;;;;;;;5.82;4.20;;;14.00;74.60;;;;;;5066606;28;20044;-78
2021/10/28 17:30:29;;;;;;;4.68;3.50;;;13.90;74.70;;;;;;5045945;28;20036;-80
2021/10/28 17:32:55;;;;;;;7.10;3.42;;;13.80;74.90;;;;;;5036813;28;20039;-80
2021/10/28 17:35:21;;;;;;;7.03;4.75;;;13.80;75.20;;;;;;5071015;28;20104;-84
2021/10/28 17:37:47;;;;;;;7.80;5.88;;;13.70;75.60;;;;;;5063094;28;20035;-83
2021/10/28 17:40:12;;;;;;;7.78;5.63;;;13.70;75.80;;;;;;5063801;28;20033;-79
2021/10/28 17:42:40;;;;;;;7.18;4.70;;;13.70;76.00;;;;;;5055187;28;20495;-80
2021/10/28 17:45:08;;;;;;;9.02;5.18;;;13.60;76.20;;;;;;5068473;28;20082;-77
2021/10/28 17:47:35;;;;;;;9.13;6.20;;;13.50;76.40;;;;;;5066944;28;20052;-80
2021/10/28 17:50:00;;;;;;;4.82;4.10;;;13.50;76.70;;;;;;5067189;28;20544;-79
2021/10/28 17:52:26;;;;;;;5.32;4.50;;;13.50;76.90;;;;;;5068347;28;20122;-81
2021/10/28 17:54:52;;;;;;;6.38;5.38;;;13.40;76.90;;;;;;5069649;28;20037;-80
2021/10/28 17:57:18;;;;;;;9.20;4.82;;;13.40;77.00;;;;;;5043788;28;20056;-81
2021/10/28 17:59:45;;;;;;;8.23;6.20;;;13.40;77.20;;;;;;5061985;28;20032;-81
2021/10/28 18:02:10;;;;;;;5.93;5.30;;;13.40;77.40;;;;;;5073924;28;20032;-81
2021/10/28 18:04:36;;;;;;;6.55;5.13;;;13.30;77.40;;;;;;5053935;28;20533;-79
2021/10/28 18:07:03;;;;;;;8.07;5.75;;;13.30;77.40;;;;;;5058030;28;20486;-80
2021/10/28 18:09:29;;;;;;;7.13;5.88;;;13.30;77.40;;;;;;5058703;28;20029;-81
2021/10/28 18:11:55;;;;;;;9.57;5.20;;;13.30;77.40;;;;;;5057027;28;20029;-80
2021/10/28 18:14:26;;;;;;;8.13;5.40;;;13.30;77.10;;;;;;5060729;28;20056;-80
2021/10/28 18:16:52;;;;;;;6.05;4.68;;;13.40;77.00;;;;;;5071942;28;20033;-81
2021/10/28 18:19:18;;;;;;;7.50;5.75;;;13.40;76.80;;;;;;5073932;28;20104;-83
2021/10/28 18:21:47;;;;;;;6.45;5.80;;;13.40;76.90;;;;;;5088543;28;20086;-82
2021/10/28 18:24:14;;;;;;;8.63;5.13;;;13.30;77.30;;;;;;5051214;28;20079;-82
2021/10/28 18:26:40;;;;;;;8.85;4.93;;;13.20;77.80;;;;;;5075444;28;20052;-81
2021/10/28 18:29:06;;;;;;;9.32;4.97;;;13.00;78.40;;;;;;5088146;28;20024;-80
2021/10/28 18:31:33;;;;;;;9.60;5.07;;;12.90;78.90;;;;;;5090145;28;20036;-82
2021/10/28 18:34:00;;;;;;;8.30;4.25;;;12.90;79.30;;;;;;5083605;28;20095;-85
2021/10/28 18:36:27;;;;;;;6.15;4.15;;;12.80;79.20;;;;;;5076084;28;20044;-84
2021/10/28 18:38:54;;;;;;;5.95;3.42;;;12.70;79.60;;;;;;5078895;28;20368;-83
2021/10/28 18:41:20;;;;;;;4.55;3.20;;;12.60;80.00;;;;;;5081866;28;20040;-82
2021/10/28 18:43:47;;;;;;;4.32;3.47;;;12.50;80.40;;;;;;5068772;28;20028;-82
2021/10/28 18:46:17;;;;;;;6.10;3.58;;;12.40;80.80;;;;;;5075044;28;20049;-81
2021/10/28 18:48:44;;;;;;;7.80;4.25;;;12.30;81.20;;;;;;5088190;28;20123;-82
2021/10/28 18:51:11;;;;;;;6.38;3.95;;;12.20;81.60;;;;;;5070427;28;20021;-81
2021/10/28 18:53:43;;;;;;;4.90;3.90;;;12.20;82.20;;;;;;5090357;28;20396;-83
2021/10/28 18:56:10;;;;;;;7.85;4.50;;;12.10;82.40;;;;;;5081501;28;20040;-79
2021/10/28 18:58:35;;;;;;;5.80;4.32;;;12.00;82.60;;;;;;5083876;28;20032;-82
2021/10/28 19:01:02;;;;;;;9.47;4.93;;;11.90;82.90;;;;;;5064826;28;20439;-81
2021/10/28 19:03:29;;;;;;;5.53;4.37;;;11.90;83.20;;;;;;5079052;28;20077;-82
2021/10/28 19:05:56;;;;;;;8.27;4.93;;;11.90;83.60;;;;;;5083529;28;20485;-82
2021/10/28 19:08:23;;;;;;;7.17;4.87;;;11.80;83.70;;;;;;5071036;28;20036;-82
2021/10/28 19:10:49;;;;;;;5.93;4.53;;;11.80;83.80;;;;;;5092790;28;20031;-82
2021/10/28 19:13:15;;;;;;;6.93;5.10;;;11.80;84.00;;;;;;5089819;28;20032;-79
2021/10/28 19:15:41;;;;;;;8.60;5.40;;;11.70;84.20;;;;;;5086051;28;20040;-84
2021/10/28 19:18:07;;;;;;;8.77;5.47;;;11.70;84.40;;;;;;5079631;28;20036;-81
2021/10/28 19:20:34;;;;;;;11.00;6.50;;;11.70;84.50;;;;;;5074019;28;20029;-82
2021/10/28 19:22:59;;;;;;;10.43;6.00;;;11.60;84.50;;;;;;5084236;28;20106;-80
2021/10/28 19:25:25;;;;;;;8.57;5.60;;;11.60;84.60;;;;;;5082624;28;20064;-81
2021/10/28 19:27:54;;;;;;;8.40;5.37;;;11.50;84.70;;;;;;5084415;28;20051;-81
2021/10/28 19:32:46;;;;;;;10.73;6.13;;;11.40;85.10;;;;;;5086115;28;20043;-82
2021/10/28 19:35:12;;;;;;;7.47;6.13;;;11.40;85.40;;;;;;5089438;28;20036;-82
2021/10/28 19:37:46;;;;;;;7.67;6.33;;;11.40;85.60;;;;;;5087624;28;20040;-82
2021/10/28 19:40:33;;;;;;;8.67;7.20;;;11.30;85.60;;;;;;5089660;28;20084;-82
2021/10/28 19:45:08;;;;;;;9.70;6.27;;;11.30;85.80;;;;;;5070327;28;20035;-83
2021/10/28 19:48:16;;;;;;;11.47;7.70;;;11.20;86.60;;;;;;5081817;28;20102;-81
2021/10/28 19:50:42;;;;;;;13.53;8.50;;;11.20;86.90;;;;;;5086625;28;20075;-82
2021/10/28 19:53:08;;;;;;;12.37;8.87;;;11.10;87.10;;;;;;5083900;28;20024;-82
2021/10/28 19:55:35;;;;;;;15.17;9.80;;;11.10;87.20;;;;;;5084728;28;20108;-81
2021/10/28 19:58:01;;;;;;;13.20;9.60;;;11.10;87.50;;;;;;5095002;28;20024;-81
2021/10/28 20:00:34;;;;;;;14.10;10.30;;;11.10;87.70;;;;;;5090183;28;20024;-82
2021/10/28 20:21:12;;;;;;;20.67;13.67;;;10.80;89.10;;;;;;5094661;28;20039;-82
2021/10/28 20:23:41;;;;;;;26.03;15.23;;;10.70;89.20;;;;;;5096523;28;20024;-82
2021/10/28 20:26:07;;;;;;;17.77;13.50;;;10.60;89.40;;;;;;5093368;28;20404;-80
2021/10/28 20:28:39;;;;;;;22.40;14.30;;;10.60;89.60;;;;;;5092283;28;20036;-81
2021/10/28 20:31:08;;;;;;;20.20;12.88;;;10.60;89.80;;;;;;5090626;28;20032;-82
2021/10/28 20:33:42;;;;;;;21.73;14.20;;;10.60;90.00;;;;;;5073799;28;20054;-82
2021/10/28 20:38:54;;;;;;;20.07;14.83;;;10.60;90.10;;;;;;5089974;28;20051;-81
2021/10/28 20:41:20;;;;;;;19.97;14.23;;;10.50;90.10;;;;;;5094084;28;20028;-81
2021/10/28 20:43:47;;;;;;;21.83;15.10;;;10.50;90.20;;;;;;5082447;28;20021;-83
2021/10/28 20:46:20;;;;;;;25.83;15.63;;;10.50;90.20;;;;;;5085311;28;20039;-81
2021/10/28 20:48:47;;;;;;;23.67;15.43;;;10.50;90.20;;;;;;5093034;28;20032;-81
2021/10/28 20:51:12;;;;;;;22.07;15.73;;;10.50;90.30;;;;;;5085770;28;20105;-81
2021/10/28 20:53:38;;;;;;;24.50;15.23;;;10.40;90.40;;;;;;5073365;28;20451;-82
2021/10/28 20:56:04;;;;;;;21.83;14.70;;;10.40;90.50;;;;;;5070661;28;20051;-81
2021/10/28 20:58:37;;;;;;;21.43;15.60;;;10.30;90.60;;;;;;5075521;28;20058;-79
2021/10/28 21:01:04;;;;;;;22.90;16.15;;;10.20;90.80;;;;;;5092509;28;20106;-81
2021/10/28 21:03:30;;;;;;;25.77;16.87;;;10.20;90.90;;;;;;5090024;28;20039;-81
2021/10/28 21:05:57;;;;;;;24.97;16.63;;;10.20;91.00;;;;;;5090814;28;20040;-80
2021/10/28 21:08:24;;;;;;;28.17;16.63;;;10.20;91.30;;;;;;5092961;28;20032;-81
2021/10/28 21:10:50;;;;;;;27.33;17.67;;;10.10;91.10;;;;;;5080164;28;20678;-82
2021/10/28 21:13:16;;;;;;;26.33;17.20;;;10.20;91.10;;;;;;5091225;28;20065;-83
2021/10/28 21:15:41;;;;;;;25.47;17.33;;;10.20;91.10;;;;;;5079071;28;20478;-80
2021/10/28 21:18:08;;;;;;;23.53;16.87;;;10.10;91.10;;;;;;5066586;28;20770;-82
2021/10/28 21:20:34;;;;;;;23.97;16.10;;;10.10;91.10;;;;;;5075142;28;20131;-82
2021/10/28 21:23:00;;;;;;;23.20;17.03;;;10.10;91.10;;;;;;5091593;28;20122;-82
2021/10/28 21:25:26;;;;;;;26.63;16.10;;;10.10;91.10;;;;;;5093081;28;20024;-82
2021/10/28 21:27:52;;;;;;;25.03;16.73;;;10.10;91.20;;;;;;5110615;28;20103;-82
2021/10/28 21:30:18;;;;;;;27.10;17.93;;;10.10;91.20;;;;;;5114068;28;20028;-82
2021/10/28 21:32:44;;;;;;;25.43;17.47;;;10.10;91.20;;;;;;5063056;28;20034;-81
2021/10/28 21:35:13;;;;;;;24.33;16.47;;;10.10;91.30;;;;;;5077124;28;20028;-82
2021/10/28 21:37:40;;;;;;;25.33;17.27;;;10.10;91.30;;;;;;5076799;28;20057;-82
2021/10/28 21:40:08;;;;;;;26.53;17.50;;;10.10;91.30;;;;;;5094073;28;20035;-81
2021/10/28 21:42:35;;;;;;;27.53;17.27;;;10.10;91.30;;;;;;5103635;28;20035;-79
2021/10/28 21:45:01;;;;;;;27.23;17.27;;;10.00;91.30;;;;;;5096111;28;20032;-80
2021/10/28 21:47:27;;;;;;;28.77;18.70;;;10.10;91.30;;;;;;5113072;28;20032;-80
2021/10/28 21:49:55;;;;;;;28.80;18.10;;;10.10;91.40;;;;;;5113133;28;20482;-82
2021/10/28 21:52:25;;;;;;;28.50;18.77;;;10.10;91.40;;;;;;5095283;28;20051;-82
2021/10/28 22:24:48;;;;;;;28.20;18.77;;;9.80;91.80;;;;;;5098542;28;20023;-82
2021/10/28 22:27:15;;;;;;;29.70;18.77;;;9.70;91.80;;;;;;5093312;28;20050;-81
2021/10/28 22:29:42;;;;;;;30.07;18.63;;;9.70;91.90;;;;;;5093271;28;20391;-78
2021/10/28 22:32:07;;;;;;;28.93;18.60;;;9.70;92.00;;;;;;5078544;28;20065;-80
2021/10/28 22:34:33;;;;;;;28.00;18.47;;;9.70;92.00;;;;;;5093629;28;20052;-80
2021/10/28 22:37:40;;;;;;;31.33;18.63;;;9.70;92.10;;;;;;5077636;28;20126;-81